createdAt,value
2023-01-30T00:03:37.620Z,100947.22
2023-01-30T00:08:40.158Z,100959.97
2023-01-30T00:13:42.729Z,100962.59
2023-01-30T00:18:45.419Z,100937.72
2023-01-30T00:23:47.595Z,100916.06
2023-01-30T00:28:49.700Z,100921.28
2023-01-30T00:33:51.823Z,100928.75
2023-01-30T00:38:54.055Z,100961.94
2023-01-30T00:44:14.739Z,100936.63
2023-01-30T00:49:16.761Z,100961.06
2023-01-30T00:54:18.989Z,100957.13
2023-01-30T00:59:21.263Z,100942.41
2023-01-30T01:04:23.376Z,100952.88
2023-01-30T01:09:25.647Z,100941.16
2023-01-30T01:14:27.890Z,100933.75
2023-01-30T01:19:30.399Z,100934.25
2023-01-30T01:24:32.527Z,100863.78
2023-01-30T01:29:34.717Z,100902.75
2023-01-30T01:34:36.799Z,100886.72
2023-01-30T01:39:57.488Z,100907.28
2023-01-30T01:45:18.238Z,100928.47
2023-01-30T01:50:25.742Z,100904.50
2023-01-30T01:55:28.957Z,100922.75
2023-01-30T02:00:32.488Z,100874.63
2023-01-30T02:05:39.221Z,100896.59
2023-01-30T02:10:53.603Z,100901.38
2023-01-30T02:16:00.842Z,100892.19
2023-01-30T02:21:43.572Z,100872.50
2023-01-30T02:27:07.288Z,100864.31
2023-01-30T02:32:24.496Z,100881.44
2023-01-30T02:37:47.872Z,100870.38
2023-01-30T02:43:01.892Z,100878.91
2023-01-30T02:48:05.775Z,100877.66
2023-01-30T02:53:08.324Z,100874.63
2023-01-30T02:58:11.648Z,100868.81
2023-01-30T03:03:35.283Z,100808.09
2023-01-30T03:08:51.571Z,100871.53
2023-01-30T03:14:02.717Z,100868.03
2023-01-30T03:19:09.531Z,100861.56
2023-01-30T03:24:12.804Z,100865.47
2023-01-30T03:29:15.794Z,100868.47
2023-01-30T03:34:17.909Z,100852.34
2023-01-30T03:39:20.228Z,100784.59
2023-01-30T03:44:22.555Z,100847.03
2023-01-30T03:49:24.678Z,100858.72
2023-01-30T03:54:26.825Z,100822.34
2023-01-30T03:59:28.930Z,100795.28
2023-01-30T04:04:31.135Z,100833.06
2023-01-30T04:09:33.227Z,100845.28
2023-01-30T04:14:35.561Z,100844.72
2023-01-30T04:19:37.695Z,100845.78
2023-01-30T04:24:40.004Z,100776.44
2023-01-30T04:29:42.796Z,100822.56
2023-01-30T04:34:45.527Z,100841.50
2023-01-30T04:39:47.711Z,100825.91
2023-01-30T04:44:49.933Z,100812.50
2023-01-30T04:49:52.059Z,100829.22
2023-01-30T04:54:54.148Z,100853.16
2023-01-30T04:59:56.264Z,100848.41
2023-01-30T05:04:58.457Z,100820.75
2023-01-30T05:10:00.539Z,100824.91
2023-01-30T05:15:02.901Z,100815.91
2023-01-30T05:20:06.691Z,100850.91
2023-01-30T05:25:09.691Z,100826.09
2023-01-30T05:30:12.392Z,100824.69
2023-01-30T05:35:14.504Z,100857.28
2023-01-30T05:40:16.781Z,100826.00
2023-01-30T05:45:19.197Z,100834.84
2023-01-30T05:50:22.031Z,100858.56
2023-01-30T06:00:39.932Z,100843.72
2023-01-30T06:05:41.978Z,100836.06
2023-01-30T06:10:44.207Z,100871.69
2023-01-30T06:15:46.593Z,100863.22
2023-01-30T06:20:53.256Z,100877.78
2023-01-30T06:25:56.095Z,100889.50
2023-01-30T06:30:58.602Z,100873.69
2023-01-30T06:36:01.120Z,100867.16
2023-01-30T06:41:03.362Z,100892.91
2023-01-30T06:46:05.820Z,100871.97
2023-01-30T06:51:08.020Z,100892.56
2023-01-30T06:56:10.289Z,100891.66
2023-01-30T07:01:13.240Z,100899.53
2023-01-30T07:06:15.473Z,100856.56
2023-01-30T07:11:17.570Z,100893.16
2023-01-30T07:16:19.823Z,100878.09
2023-01-30T07:21:21.933Z,100909.66
2023-01-30T07:26:25.326Z,100885.22
2023-01-30T07:31:27.457Z,100888.72
2023-01-30T07:36:29.819Z,100884.50
2023-01-30T07:41:32.219Z,100865.28
2023-01-30T07:46:35.655Z,100882.72
2023-01-30T07:51:37.865Z,100910.72
2023-01-30T07:56:40.433Z,100892.34
2023-01-30T08:01:42.561Z,100872.25
2023-01-30T08:06:44.693Z,100888.16
2023-01-30T08:11:46.858Z,100878.31
2023-01-30T08:16:49.379Z,100878.53
2023-01-30T08:21:51.556Z,100870.88
2023-01-30T08:26:53.777Z,100890.66
2023-01-30T08:31:59.574Z,100844.28
2023-01-30T08:37:01.859Z,100867.19
2023-01-30T08:42:04.141Z,100868.53
2023-01-30T08:47:06.363Z,100834.53
2023-01-30T08:52:08.604Z,100853.69
2023-01-30T08:57:10.891Z,100828.13
2023-01-30T09:02:13.690Z,100861.38
2023-01-30T09:07:15.991Z,100857.31
2023-01-30T09:12:18.263Z,100820.06
2023-01-30T09:17:20.464Z,100826.38
2023-01-30T09:22:22.618Z,100807.84
2023-01-30T09:27:24.978Z,100796.31
2023-01-30T09:32:27.199Z,100822.31
2023-01-30T09:37:29.307Z,100792.97
2023-01-30T09:43:08.811Z,100798.34
2023-01-30T09:48:19.466Z,100783.59
2023-01-30T09:53:28.071Z,100758.59
2023-01-30T09:58:57.838Z,100760.84
2023-01-30T10:04:16.174Z,100741.53
2023-01-30T10:09:31.614Z,100723.72
2023-01-30T10:14:47.843Z,100723.09
2023-01-30T10:19:55.768Z,100715.38
2023-01-30T10:25:19.553Z,100710.72
2023-01-30T10:30:22.197Z,100687.31
2023-01-30T10:35:29.965Z,100647.69
2023-01-30T10:40:39.036Z,100663.16
2023-01-30T10:45:47.797Z,100654.41
2023-01-30T10:51:06.410Z,100651.41
2023-01-30T10:56:39.199Z,100634.34
2023-01-30T11:02:07.095Z,100629.06
2023-01-30T11:07:10.332Z,100599.81
2023-01-30T11:12:13.312Z,100578.06
2023-01-30T11:17:18.717Z,100594.84
2023-01-30T11:22:21.141Z,100545.75
2023-01-30T11:27:29.763Z,100585.22
2023-01-30T11:32:32.117Z,100535.31
2023-01-30T11:37:39.993Z,100555.88
2023-01-30T11:42:45.298Z,100541.53
2023-01-30T11:47:57.757Z,100549.28
2023-01-30T11:53:05.759Z,100517.16
2023-01-30T11:58:10.087Z,100516.78
2023-01-30T12:03:18.924Z,100509.03
2023-01-30T12:08:31.301Z,100518.75
2023-01-30T12:13:45.776Z,100515.19
2023-01-30T12:19:04.906Z,100506.03
2023-01-30T12:24:27.994Z,100496.38
2023-01-30T12:29:36.415Z,100492.41
2023-01-30T12:34:38.631Z,100480.38
2023-01-30T12:39:58.691Z,100488.47
2023-01-30T12:45:15.053Z,100483.16
2023-01-30T12:50:34.975Z,100477.97
2023-01-30T12:55:58.428Z,100468.63
2023-01-30T13:01:28.371Z,100476.41
2023-01-30T13:06:51.846Z,100468.84
2023-01-30T13:12:12.394Z,100459.56
2023-01-30T13:17:23.658Z,100454.25
2023-01-30T13:22:54.747Z,100448.47
2023-01-30T13:28:03.651Z,100440.81
2023-01-30T13:33:30.256Z,100429.22
2023-01-30T13:38:35.471Z,100407.34
2023-01-30T13:43:50.946Z,100413.09
2023-01-30T13:49:06.452Z,100413.28
2023-01-30T13:54:20.309Z,100421.59
2023-01-30T13:59:28.148Z,100416.25
2023-01-30T14:04:41.919Z,100408.84
2023-01-30T14:09:50.547Z,100386.06
2023-01-30T14:15:08.006Z,100399.38
2023-01-30T14:20:22.691Z,100365.09
2023-01-30T14:25:30.721Z,100402.34
2023-01-30T14:30:46.075Z,100398.16
2023-01-30T14:36:03.284Z,100394.84
2023-01-30T14:41:05.347Z,100390.09
2023-01-30T14:46:19.471Z,100389.63
2023-01-30T14:51:39.694Z,100384.69
2023-01-30T14:56:57.394Z,100378.78
2023-01-30T15:02:14.910Z,100372.25
2023-01-30T15:07:27.765Z,100364.38
2023-01-30T15:12:51.390Z,100375.16
2023-01-30T15:18:14.446Z,100378.47
2023-01-30T15:23:44.285Z,100379.25
2023-01-30T15:29:17.021Z,100379.06
2023-01-30T15:34:20.635Z,100379.41
2023-01-30T15:39:27.478Z,100379.34
2023-01-30T15:44:36.868Z,100351.16
2023-01-30T15:50:10.181Z,100377.56
2023-01-30T15:55:26.463Z,100358.06
2023-01-30T16:00:32.294Z,100351.28
2023-01-30T16:05:34.534Z,100350.34
2023-01-30T16:10:45.388Z,100377.94
2023-01-30T16:15:56.812Z,100353.16
2023-01-30T16:21:03.328Z,100376.72
2023-01-30T16:26:18.357Z,100365.78
2023-01-30T16:31:20.694Z,100372.88
2023-01-30T16:36:22.907Z,100367.06
2023-01-30T16:41:35.263Z,100364.75
2023-01-30T16:46:43.223Z,100363.13
2023-01-30T16:51:46.146Z,100364.53
2023-01-30T17:02:35.901Z,100332.47
2023-01-30T17:07:38.353Z,100348.94
2023-01-30T17:12:44.327Z,100372.75
2023-01-30T17:17:46.717Z,100372.13
2023-01-30T17:22:52.865Z,100366.84
2023-01-30T17:27:55.133Z,100347.22
2023-01-30T17:32:57.310Z,100343.53
2023-01-30T17:38:05.336Z,100361.03
2023-01-30T17:43:09.888Z,100316.75
2023-01-30T17:48:13.670Z,100346.84
2023-01-30T17:53:15.867Z,100313.78
2023-01-30T17:58:19.167Z,100334.03
2023-01-30T18:03:21.284Z,100297.69
2023-01-30T18:08:23.390Z,100329.91
2023-01-30T18:13:25.517Z,100284.00
2023-01-30T18:18:27.739Z,100353.91
2023-01-30T18:23:29.884Z,100336.44
2023-01-30T18:28:32.095Z,100341.25
2023-01-30T18:33:34.463Z,100344.09
2023-01-30T18:38:36.941Z,100338.44
2023-01-30T18:43:39.701Z,100351.53
2023-01-30T18:48:42.774Z,100307.75
2023-01-30T18:53:47.010Z,100354.22
2023-01-30T18:58:56.581Z,100367.16
2023-01-30T19:04:01.683Z,100337.00
2023-01-30T19:09:05.020Z,100348.03
2023-01-30T19:14:08.120Z,100371.72
2023-01-30T19:19:10.695Z,100370.22
2023-01-30T19:24:14.864Z,100372.16
2023-01-30T19:29:18.577Z,100366.66
2023-01-30T19:34:20.831Z,100348.25
2023-01-30T19:39:23.070Z,100363.44
2023-01-30T19:44:25.170Z,100366.50
2023-01-30T19:49:27.269Z,100365.97
2023-01-30T19:54:29.592Z,100363.81
2023-01-30T19:59:31.823Z,100330.50
2023-01-30T20:04:33.943Z,100349.34
2023-01-30T20:09:36.200Z,100329.88
2023-01-30T20:14:38.381Z,100329.69
2023-01-30T20:19:40.597Z,100329.72
2023-01-30T20:24:42.799Z,100293.38
2023-01-30T20:29:44.971Z,100305.53
2023-01-30T20:34:47.223Z,100325.19
2023-01-30T20:39:51.406Z,100312.88
2023-01-30T20:44:53.581Z,100335.53
2023-01-30T20:49:55.793Z,100342.19
2023-01-30T20:55:00.620Z,100342.53
2023-01-30T21:00:05.201Z,100322.00
2023-01-30T21:05:08.406Z,100303.00
2023-01-30T21:10:11.218Z,100317.66
2023-01-30T21:15:13.446Z,100337.66
2023-01-30T21:20:15.985Z,100355.19
2023-01-30T21:25:19.292Z,100328.50
2023-01-30T21:30:21.635Z,100340.63
2023-01-30T21:35:23.816Z,100327.47
2023-01-30T21:40:44.578Z,100323.78
2023-01-30T21:45:46.633Z,100353.75
2023-01-30T21:50:49.225Z,100317.47
2023-01-30T21:55:53.378Z,100336.50
2023-01-30T22:00:55.596Z,100291.75
2023-01-30T22:05:57.879Z,100319.13
2023-01-30T22:11:19.726Z,100330.41
2023-01-30T22:16:27.477Z,100286.00
2023-01-30T22:21:32.890Z,100311.50
2023-01-30T22:26:36.460Z,100290.94
2023-01-30T22:31:40.841Z,100314.59
2023-01-30T22:36:43.093Z,100308.16
2023-01-30T22:41:45.264Z,100284.44
2023-01-30T22:46:50.519Z,100313.16
2023-01-30T22:51:52.654Z,100305.09
2023-01-30T22:56:54.972Z,100311.75
2023-01-30T23:01:57.131Z,100317.78
2023-01-30T23:06:59.903Z,100304.78
2023-01-30T23:12:20.680Z,100285.78
2023-01-30T23:17:41.229Z,100303.78
2023-01-30T23:22:43.704Z,100275.66
2023-01-30T23:27:45.975Z,100283.81
2023-01-30T23:32:48.190Z,100290.13
2023-01-30T23:38:08.954Z,100272.72
2023-01-30T23:43:11.320Z,100284.38
2023-01-30T23:48:13.473Z,100287.13
2023-01-30T23:53:15.686Z,100270.66
2023-01-30T23:58:17.830Z,100274.22
